Time,TemperatureF,DewpointF,PressureIn,WindDirection,WindDirectionDegrees,WindSpeedMPH,WindSpeedGustMPH,Humidity,HourlyPrecipIn,Conditions,Clouds,dailyrainin,SoftwareType,DateUTC
2013-02-15 00:12:00,33.1,26.1,29.96,NW,313,1.0,3.0,75,0.00,,,0.00,meteohub,2013-02-15 05:12:00,
2013-02-15 00:16:00,33.1,26.1,29.96,ESE,107,2.0,3.0,75,0.00,,,0.00,meteohub,2013-02-15 05:16:00,
2013-02-15 00:27:00,33.1,26.1,29.96,SE,144,2.0,3.0,75,0.00,,,0.00,meteohub,2013-02-15 05:27:00,
2013-02-15 00:28:00,33.1,26.1,29.96,SE,136,2.0,3.0,75,0.00,,,0.00,meteohub,2013-02-15 05:28:00,
2013-02-15 00:38:00,33.4,26.4,29.96,NW,317,1.0,3.0,75,0.00,,,0.00,meteohub,2013-02-15 05:38:00,
2013-02-15 00:47:00,31.5,25.2,29.98,North,5,2.0,4.0,77,0.00,,,0.00,meteohub,2013-02-15 05:47:00,
2013-02-15 01:01:00,29.8,25.9,29.97,WNW,288,0.0,8.0,85,0.00,,,0.00,meteohub,2013-02-15 06:01:00,
2013-02-15 01:07:00,30.6,26.2,29.97,West,281,0.0,3.0,84,0.00,,,0.00,meteohub,2013-02-15 06:07:00,
2013-02-15 01:12:00,31.5,26.6,29.97,WSW,247,0.0,2.0,82,0.00,,,0.00,meteohub,2013-02-15 06:12:00,
2013-02-15 01:29:00,33.6,26.6,29.96,SE,132,0.0,1.0,75,0.00,,,0.00,meteohub,2013-02-15 06:29:00,
2013-02-15 01:35:00,34.3,27.0,29.96,SE,132,0.0,1.0,74,0.00,,,0.00,meteohub,2013-02-15 06:35:00,
2013-02-15 01:42:00,34.9,27.1,29.96,SE,132,0.0,1.0,73,0.00,,,0.00,meteohub,2013-02-15 06:42:00,
2013-02-15 01:48:00,35.1,27.0,29.96,SE,137,0.0,1.0,72,0.00,,,0.00,meteohub,2013-02-15 06:48:00,
2013-02-15 01:54:00,34.5,26.8,29.96,ESE,108,0.0,1.0,73,0.00,,,0.00,meteohub,2013-02-15 06:54:00,
2013-02-15 02:01:00,34.2,26.8,29.96,ESE,109,0.0,2.0,74,0.00,,,0.00,meteohub,2013-02-15 07:01:00,
2013-02-15 02:10:00,33.8,26.4,29.96,SSE,165,0.0,2.0,74,0.00,,,0.00,meteohub,2013-02-15 07:10:00,
2013-02-15 02:22:00,33.6,26.6,29.96,SSE,165,0.0,2.0,75,0.00,,,0.00,meteohub,2013-02-15 07:22:00,
2013-02-15 02:30:00,33.6,26.6,29.96,SE,141,2.0,2.0,75,0.00,,,0.00,meteohub,2013-02-15 07:30:00,
2013-02-15 02:37:00,34.0,27.0,29.96,ESE,111,1.0,2.0,75,0.00,,,0.00,meteohub,2013-02-15 07:37:00,
2013-02-15 02:42:00,34.2,26.8,29.96,ESE,117,0.0,2.0,74,0.00,,,0.00,meteohub,2013-02-15 07:42:00,
2013-02-15 02:52:00,34.0,26.6,29.96,SE,135,0.0,2.0,74,0.00,,,0.00,meteohub,2013-02-15 07:52:00,
2013-02-15 02:59:00,33.4,26.4,29.96,South,175,0.0,2.0,75,0.00,,,0.00,meteohub,2013-02-15 07:59:00,
2013-02-15 03:27:00,33.4,26.4,29.97,SSE,161,0.0,2.0,75,0.00,,,0.00,meteohub,2013-02-15 08:27:00,
2013-02-15 03:37:00,33.4,26.8,29.97,West,265,1.0,2.0,76,0.00,,,0.00,meteohub,2013-02-15 08:37:00,
2013-02-15 03:44:00,33.4,26.4,29.97,WNW,303,0.0,2.0,75,0.00,,,0.00,meteohub,2013-02-15 08:44:00,
2013-02-15 04:07:00,33.1,26.6,29.98,SE,146,0.0,2.0,77,0.00,,,0.00,meteohub,2013-02-15 09:07:00,
2013-02-15 04:22:00,32.9,26.4,29.98,SSE,154,0.0,3.0,77,0.00,,,0.00,meteohub,2013-02-15 09:22:00,
2013-02-15 04:40:00,32.5,26.4,29.99,SE,144,0.0,0.0,78,0.00,,,0.00,meteohub,2013-02-15 09:40:00,
2013-02-15 04:47:00,32.5,26.4,29.99,SE,144,0.0,0.0,78,0.00,,,0.00,meteohub,2013-02-15 09:47:00,
2013-02-15 04:56:00,32.9,26.4,29.99,SE,144,0.0,0.0,77,0.00,,,0.00,meteohub,2013-02-15 09:56:00,
2013-02-15 05:02:00,33.4,27.0,29.99,SE,143,0.0,0.0,77,0.00,,,0.00,meteohub,2013-02-15 10:02:00,
2013-02-15 05:12:00,34.2,27.3,29.99,SE,128,0.0,0.0,76,0.00,,,0.00,meteohub,2013-02-15 10:12:00,
2013-02-15 05:25:00,35.4,27.3,29.99,SE,139,0.0,0.0,72,0.00,,,0.00,meteohub,2013-02-15 10:25:00,
2013-02-15 05:31:00,35.8,27.7,29.99,SE,139,0.0,0.0,72,0.00,,,0.00,meteohub,2013-02-15 10:31:00,
2013-02-15 05:37:00,35.2,27.1,29.99,SE,139,0.0,0.0,72,0.00,,,0.00,meteohub,2013-02-15 10:37:00,
2013-02-15 05:42:00,35.1,27.3,29.99,SE,138,0.0,0.0,73,0.00,,,0.00,meteohub,2013-02-15 10:42:00,
2013-02-15 05:48:00,34.9,27.7,29.99,SE,136,0.0,0.0,75,0.00,,,0.00,meteohub,2013-02-15 10:48:00,
2013-02-15 05:57:00,35.2,28.0,30.00,SE,136,0.0,0.0,75,0.00,,,0.00,meteohub,2013-02-15 10:57:00,
2013-02-15 06:10:00,37.2,29.3,30.00,SE,133,0.0,1.0,73,0.00,,,0.00,meteohub,2013-02-15 11:10:00,
2013-02-15 06:22:00,37.8,29.5,30.00,SSE,155,1.0,0.0,72,0.00,,,0.00,meteohub,2013-02-15 11:22:00,
2013-02-15 06:30:00,37.9,29.7,30.00,SSE,155,0.0,1.0,72,0.00,,,0.00,meteohub,2013-02-15 11:30:00,
2013-02-15 06:37:00,37.6,29.1,30.01,NW,315,0.0,1.0,71,0.00,,,0.00,meteohub,2013-02-15 11:37:00,
2013-02-15 06:52:00,34.5,27.1,30.01,SE,139,0.0,2.0,74,0.00,,,0.00,meteohub,2013-02-15 11:52:00,
2013-02-15 06:59:00,34.0,27.5,30.01,SE,133,0.0,2.0,77,0.00,,,0.00,meteohub,2013-02-15 11:59:00,
2013-02-15 07:07:00,33.1,26.6,30.01,NNW,344,0.0,2.0,77,0.00,,,0.00,meteohub,2013-02-15 12:07:00,
2013-02-15 07:12:00,33.1,26.6,30.01,NNW,344,0.0,1.0,77,0.00,,,0.00,meteohub,2013-02-15 12:12:00,
2013-02-15 07:18:00,32.5,26.4,30.02,NW,313,0.0,1.0,78,0.00,,,0.00,meteohub,2013-02-15 12:18:00,
2013-02-15 07:25:00,32.2,26.4,30.02,NW,313,0.0,2.0,79,0.00,,,0.00,meteohub,2013-02-15 12:25:00,
2013-02-15 07:35:00,31.8,26.6,30.02,SE,128,0.0,2.0,81,0.00,,,0.00,meteohub,2013-02-15 12:35:00,
2013-02-15 07:41:00,31.6,26.8,30.02,SE,127,0.0,1.0,82,0.00,,,0.00,meteohub,2013-02-15 12:41:00,
2013-02-15 07:50:00,33.1,29.1,30.02,SE,124,1.0,1.0,85,0.00,,,0.00,meteohub,2013-02-15 12:50:00,
2013-02-15 08:00:00,36.0,30.0,30.02,East,96,0.0,2.0,79,0.00,,,0.00,meteohub,2013-02-15 13:00:00,
2013-02-15 08:07:00,37.8,31.3,30.03,ESE,109,0.0,2.0,77,0.00,,,0.00,meteohub,2013-02-15 13:07:00,
2013-02-15 08:16:00,39.6,31.3,30.03,East,92,0.0,2.0,72,0.00,,,0.00,meteohub,2013-02-15 13:16:00,
2013-02-15 08:25:00,40.6,31.6,30.03,East,92,0.0,0.0,70,0.00,,,0.00,meteohub,2013-02-15 13:25:00,
2013-02-15 08:31:00,40.8,31.1,30.04,East,98,0.0,0.0,68,0.00,,,0.00,meteohub,2013-02-15 13:31:00,
2013-02-15 08:37:00,41.2,32.2,30.04,East,83,0.0,0.0,70,0.00,,,0.00,meteohub,2013-02-15 13:37:00,
2013-02-15 08:44:00,39.7,30.4,30.04,NNW,329,0.0,2.0,69,0.00,,,0.00,meteohub,2013-02-15 13:44:00,
2013-02-15 09:03:00,41.5,32.2,30.04,SSW,204,0.0,2.0,69,0.00,,,0.00,meteohub,2013-02-15 14:03:00,
2013-02-15 09:12:00,42.3,32.5,30.05,ESE,117,0.0,4.0,68,0.00,,,0.00,meteohub,2013-02-15 14:12:00,
2013-02-15 09:17:00,42.6,32.4,30.05,SSE,149,1.0,4.0,67,0.00,,,0.00,meteohub,2013-02-15 14:17:00,
2013-02-15 09:23:00,43.0,33.4,30.04,SE,141,3.0,4.0,69,0.00,,,0.00,meteohub,2013-02-15 14:23:00,
2013-02-15 09:36:00,43.3,32.4,30.04,South,170,0.0,4.0,65,0.00,,,0.00,meteohub,2013-02-15 14:36:00,
2013-02-15 09:45:00,42.8,31.8,30.04,West,270,0.0,3.0,65,0.00,,,0.00,meteohub,2013-02-15 14:45:00,
2013-02-15 09:58:00,43.3,32.4,30.04,NNE,23,0.0,3.0,65,0.00,,,0.00,meteohub,2013-02-15 14:58:00,
2013-02-15 10:05:00,43.5,32.9,30.04,NNW,343,0.0,3.0,66,0.00,,,0.00,meteohub,2013-02-15 15:05:00,
2013-02-15 10:12:00,43.3,32.4,30.04,NW,304,1.0,2.0,65,0.00,,,0.00,meteohub,2013-02-15 15:12:00,
2013-02-15 10:21:00,43.9,32.5,30.03,NW,308,2.0,3.0,64,0.00,,,0.00,meteohub,2013-02-15 15:21:00,
2013-02-15 10:31:00,44.6,33.3,30.03,NNW,333,4.0,4.0,64,0.00,,,0.00,meteohub,2013-02-15 15:31:00,
2013-02-15 10:42:00,45.5,32.9,30.03,NW,316,1.0,4.0,61,0.00,,,0.00,meteohub,2013-02-15 15:42:00,
2013-02-15 10:57:00,45.9,34.3,30.02,NW,312,2.0,4.0,64,0.00,,,0.00,meteohub,2013-02-15 15:57:00,
2013-02-15 11:02:00,46.0,33.8,30.01,NNW,340,2.0,4.0,62,0.00,,,0.00,meteohub,2013-02-15 16:02:00,
2013-02-15 11:07:00,45.9,33.6,30.01,NNW,338,0.0,4.0,62,0.00,,,0.00,meteohub,2013-02-15 16:07:00,
2013-02-15 11:12:00,45.7,34.2,30.01,WNW,300,1.0,4.0,64,0.00,,,0.00,meteohub,2013-02-15 16:12:00,
2013-02-15 11:22:00,45.3,33.8,30.01,NNW,340,0.0,5.0,64,0.00,,,0.00,meteohub,2013-02-15 16:22:00,
2013-02-15 11:29:00,45.7,33.8,30.01,NW,309,1.0,5.0,63,0.00,,,0.00,meteohub,2013-02-15 16:29:00,
2013-02-15 11:35:00,46.0,34.5,30.01,NW,310,1.0,3.0,64,0.00,,,0.00,meteohub,2013-02-15 16:35:00,
2013-02-15 11:45:00,47.1,33.1,30.00,NW,319,1.0,5.0,58,0.00,,,0.00,meteohub,2013-02-15 16:45:00,
2013-02-15 11:51:00,47.1,32.7,30.00,WNW,302,1.0,5.0,57,0.00,,,0.00,meteohub,2013-02-15 16:51:00,
2013-02-15 11:57:00,47.1,33.1,30.00,NNW,329,1.0,5.0,58,0.00,,,0.00,meteohub,2013-02-15 16:57:00,
2013-02-15 12:04:00,47.5,33.8,29.99,NW,306,0.0,5.0,59,0.00,,,0.00,meteohub,2013-02-15 17:04:00,
2013-02-15 12:12:00,47.7,34.0,29.99,WNW,300,2.0,4.0,59,0.00,,,0.00,meteohub,2013-02-15 17:12:00,
2013-02-15 12:30:00,47.1,32.2,29.99,WNW,296,1.0,4.0,56,0.00,,,0.00,meteohub,2013-02-15 17:30:00,
2013-02-15 12:40:00,47.5,32.5,29.98,NW,319,1.0,4.0,56,0.00,,,0.00,meteohub,2013-02-15 17:40:00,
2013-02-15 12:49:00,47.5,31.3,29.98,NW,323,0.0,5.0,53,0.00,,,0.00,meteohub,2013-02-15 17:49:00,
2013-02-15 12:56:00,47.7,30.9,29.98,North,355,0.0,5.0,52,0.00,,,0.00,meteohub,2013-02-15 17:56:00,
2013-02-15 13:07:00,46.9,30.7,29.98,WNW,302,3.0,6.0,53,0.00,,,0.00,meteohub,2013-02-15 18:07:00,
2013-02-15 13:37:00,45.7,28.6,29.97,WNW,302,1.0,6.0,51,0.00,,,0.00,meteohub,2013-02-15 18:37:00,
2013-02-15 13:46:00,45.5,28.4,29.97,NNW,336,4.0,6.0,51,0.00,,,0.00,meteohub,2013-02-15 18:46:00,
2013-02-15 13:55:00,45.1,28.6,29.96,NW,309,3.0,6.0,52,0.00,,,0.00,meteohub,2013-02-15 18:55:00,
2013-02-15 14:01:00,45.0,28.4,29.97,NW,317,2.0,5.0,52,0.00,,,0.00,meteohub,2013-02-15 19:01:00,
2013-02-15 14:08:00,44.6,28.9,29.97,NW,308,4.0,5.0,54,0.00,,,0.00,meteohub,2013-02-15 19:08:00,
2013-02-15 14:24:00,43.7,29.1,29.97,NW,307,3.0,7.0,56,0.00,,,0.00,meteohub,2013-02-15 19:24:00,
2013-02-15 14:30:00,43.3,30.0,29.97,NW,318,1.0,9.0,59,0.00,,,0.00,meteohub,2013-02-15 19:30:00,
2013-02-15 14:36:00,43.2,28.6,29.98,NNW,331,1.0,9.0,56,0.00,,,0.00,meteohub,2013-02-15 19:36:00,
2013-02-15 14:57:00,42.8,28.2,29.98,NW,311,2.0,5.0,56,0.00,,,0.00,meteohub,2013-02-15 19:57:00,
2013-02-15 15:02:00,42.4,29.1,29.99,NW,314,1.0,5.0,59,0.00,,,0.00,meteohub,2013-02-15 20:02:00,
2013-02-15 15:07:00,41.9,29.8,29.99,NW,304,2.0,7.0,62,0.00,,,0.00,meteohub,2013-02-15 20:07:00,
2013-02-15 15:12:00,41.4,29.7,29.99,NW,305,2.0,7.0,63,0.00,,,0.00,meteohub,2013-02-15 20:12:00,
2013-02-15 15:18:00,41.2,31.8,29.99,NW,316,0.0,7.0,69,0.00,,,0.00,meteohub,2013-02-15 20:18:00,
2013-02-15 15:51:00,39.2,32.9,30.00,NNW,339,0.0,2.0,78,0.00,,,0.00,meteohub,2013-02-15 20:51:00,
2013-02-15 15:57:00,38.7,32.7,30.00,NW,313,3.0,3.0,79,0.01,,,0.01,meteohub,2013-02-15 20:57:00,
2013-02-15 16:02:00,38.5,32.2,30.00,NNW,342,3.0,5.0,78,0.01,,,0.01,meteohub,2013-02-15 21:02:00,
2013-02-15 16:07:00,37.9,32.7,30.00,WNW,296,1.0,6.0,81,0.02,,,0.02,meteohub,2013-02-15 21:07:00,
2013-02-15 16:13:00,37.6,32.9,30.00,WNW,286,0.0,6.0,83,0.02,,,0.02,meteohub,2013-02-15 21:13:00,
2013-02-15 16:20:00,37.4,33.1,29.99,SSW,200,0.0,6.0,84,0.02,,,0.02,meteohub,2013-02-15 21:20:00,
2013-02-15 16:35:00,37.0,32.9,30.00,WSW,247,0.0,1.0,85,0.02,,,0.02,meteohub,2013-02-15 21:35:00,
2013-02-15 16:42:00,37.0,33.3,29.99,WSW,247,0.0,0.0,86,0.02,,,0.02,meteohub,2013-02-15 21:42:00,
2013-02-15 16:52:00,37.0,34.2,29.99,WSW,247,0.0,0.0,89,0.03,,,0.03,meteohub,2013-02-15 21:52:00,
2013-02-15 17:02:00,37.0,34.2,29.99,SE,134,0.0,0.0,89,0.02,,,0.03,meteohub,2013-02-15 22:02:00,
2013-02-15 17:12:00,36.9,33.6,29.99,SE,134,0.0,3.0,88,0.01,,,0.03,meteohub,2013-02-15 22:12:00,
2013-02-15 17:17:00,36.9,33.6,29.99,SE,134,0.0,1.0,88,0.01,,,0.03,meteohub,2013-02-15 22:17:00,
2013-02-15 17:31:00,36.7,34.0,29.99,SE,134,0.0,0.0,90,0.01,,,0.03,meteohub,2013-02-15 22:31:00,
2013-02-15 17:55:00,36.3,33.6,30.00,SE,134,0.0,0.0,90,0.00,,,0.03,meteohub,2013-02-15 22:55:00,
2013-02-15 18:11:00,36.1,33.3,30.00,SE,133,0.0,0.0,89,0.00,,,0.03,meteohub,2013-02-15 23:11:00,
2013-02-15 18:17:00,36.1,33.3,30.00,SE,134,0.0,0.0,89,0.00,,,0.03,meteohub,2013-02-15 23:17:00,
2013-02-15 18:24:00,36.1,32.9,30.00,SE,134,0.0,0.0,88,0.00,,,0.03,meteohub,2013-02-15 23:24:00,
2013-02-15 18:37:00,36.1,32.9,30.00,WNW,298,0.0,0.0,88,0.00,,,0.03,meteohub,2013-02-15 23:37:00,
2013-02-15 18:47:00,36.3,32.9,30.01,NNE,31,0.0,4.0,87,0.00,,,0.03,meteohub,2013-02-15 23:47:00,
2013-02-15 18:53:00,36.3,33.1,30.01,WNW,294,0.0,4.0,88,0.00,,,0.03,meteohub,2013-02-15 23:53:00,
2013-02-15 18:59:00,36.3,33.4,30.01,WNW,290,0.0,2.0,89,0.00,,,0.03,meteohub,2013-02-15 23:59:00,
2013-02-15 19:05:00,36.1,32.7,30.00,West,280,0.0,1.0,87,0.00,,,0.03,meteohub,2013-02-16 00:05:00,
2013-02-15 19:11:00,36.1,32.7,30.00,West,280,0.0,1.0,87,0.01,,,0.04,meteohub,2013-02-16 00:11:00,
2013-02-15 19:17:00,36.1,32.7,30.00,West,280,0.0,0.0,87,0.01,,,0.04,meteohub,2013-02-16 00:17:00,
2013-02-15 19:22:00,36.1,32.4,30.01,SW,216,0.0,0.0,86,0.01,,,0.04,meteohub,2013-02-16 00:22:00,
2013-02-15 19:29:00,36.1,31.8,30.01,SSW,210,0.0,0.0,84,0.01,,,0.04,meteohub,2013-02-16 00:29:00,
2013-02-15 19:35:00,36.3,31.6,30.01,West,270,0.0,1.0,83,0.01,,,0.04,meteohub,2013-02-16 00:35:00,
2013-02-15 19:42:00,36.5,31.5,30.01,West,279,0.0,1.0,82,0.01,,,0.04,meteohub,2013-02-16 00:42:00,
2013-02-15 19:51:00,36.7,31.1,30.00,WNW,295,1.0,3.0,80,0.01,,,0.04,meteohub,2013-02-16 00:51:00,
2013-02-15 19:57:00,36.7,31.1,30.01,WNW,282,1.0,3.0,80,0.01,,,0.04,meteohub,2013-02-16 00:57:00,
2013-02-15 20:02:00,36.7,31.1,30.01,WNW,301,2.0,2.0,80,0.01,,,0.04,meteohub,2013-02-16 01:02:00,
2013-02-15 20:07:00,36.7,31.1,30.01,NW,304,4.0,4.0,80,0.00,,,0.04,meteohub,2013-02-16 01:07:00,
2013-02-15 20:12:00,36.7,31.1,30.01,NW,305,1.0,4.0,80,0.00,,,0.04,meteohub,2013-02-16 01:12:00,
2013-02-15 20:17:00,36.7,30.6,30.01,NW,314,1.0,4.0,78,0.00,,,0.04,meteohub,2013-02-16 01:17:00,
2013-02-15 20:22:00,36.7,31.1,30.01,NW,309,2.0,5.0,80,0.00,,,0.04,meteohub,2013-02-16 01:22:00,
2013-02-15 20:27:00,36.5,30.9,30.02,NNW,340,5.0,5.0,80,0.00,,,0.04,meteohub,2013-02-16 01:27:00,
2013-02-15 20:32:00,36.7,31.1,30.02,NW,306,1.0,6.0,80,0.00,,,0.04,meteohub,2013-02-16 01:32:00,
2013-02-15 20:37:00,36.5,30.0,30.02,NW,315,2.0,6.0,77,0.00,,,0.04,meteohub,2013-02-16 01:37:00,
2013-02-15 20:42:00,36.7,30.6,30.01,NNW,335,1.0,6.0,78,0.00,,,0.04,meteohub,2013-02-16 01:42:00,
2013-02-15 20:47:00,36.3,31.1,30.02,NNW,335,3.0,6.0,81,0.00,,,0.04,meteohub,2013-02-16 01:47:00,
2013-02-15 20:52:00,36.1,30.2,30.02,NNW,336,3.0,6.0,79,0.00,,,0.04,meteohub,2013-02-16 01:52:00,
2013-02-15 20:59:00,36.1,30.2,30.02,NNW,328,6.0,6.0,79,0.00,,,0.04,meteohub,2013-02-16 01:59:00,
2013-02-15 21:05:00,36.1,30.6,30.02,NW,313,1.0,6.0,80,0.00,,,0.04,meteohub,2013-02-16 02:05:00,
2013-02-15 21:11:00,36.1,29.3,30.03,NW,326,2.0,7.0,76,0.00,,,0.04,meteohub,2013-02-16 02:11:00,
2013-02-15 21:17:00,36.3,29.8,30.03,NNW,330,2.0,7.0,77,0.00,,,0.04,meteohub,2013-02-16 02:17:00,
2013-02-15 21:22:00,36.1,29.7,30.03,North,11,0.0,7.0,77,0.00,,,0.04,meteohub,2013-02-16 02:22:00,
2013-02-15 21:29:00,35.8,28.6,30.02,NW,326,4.0,7.0,75,0.00,,,0.04,meteohub,2013-02-16 02:29:00,
2013-02-15 21:35:00,35.8,28.6,30.03,NNW,337,0.0,5.0,75,0.00,,,0.04,meteohub,2013-02-16 02:35:00,
2013-02-15 21:41:00,35.6,28.8,30.02,NNW,334,2.0,5.0,76,0.00,,,0.04,meteohub,2013-02-16 02:41:00,
2013-02-15 21:51:00,35.4,28.2,30.03,NNW,337,1.0,6.0,75,0.00,,,0.04,meteohub,2013-02-16 02:51:00,
2013-02-15 21:58:00,35.6,28.4,30.03,NNW,344,0.0,6.0,75,0.00,,,0.04,meteohub,2013-02-16 02:58:00,
2013-02-15 22:10:00,35.4,28.2,30.03,NNW,333,0.0,5.0,75,0.00,,,0.04,meteohub,2013-02-16 03:10:00,
2013-02-15 22:16:00,35.2,28.0,30.03,NNW,333,0.0,5.0,75,0.00,,,0.04,meteohub,2013-02-16 03:16:00,
2013-02-15 22:22:00,35.1,27.7,30.03,NNW,335,0.0,3.0,74,0.00,,,0.04,meteohub,2013-02-16 03:22:00,
2013-02-15 22:29:00,35.1,27.7,30.03,WNW,296,0.0,2.0,74,0.00,,,0.04,meteohub,2013-02-16 03:29:00,
2013-02-15 22:35:00,34.9,27.7,30.02,NW,315,1.0,4.0,75,0.00,,,0.04,meteohub,2013-02-16 03:35:00,
2013-02-15 22:41:00,34.9,27.5,30.02,NNW,327,0.0,4.0,74,0.00,,,0.04,meteohub,2013-02-16 03:41:00,
2013-02-15 22:47:00,34.9,27.5,30.02,NNW,327,0.0,2.0,74,0.00,,,0.04,meteohub,2013-02-16 03:47:00,
2013-02-15 22:53:00,34.7,27.7,30.02,NNW,327,0.0,2.0,75,0.00,,,0.04,meteohub,2013-02-16 03:53:00,
2013-02-15 22:59:00,34.5,27.1,30.02,NNW,327,0.0,1.0,74,0.00,,,0.04,meteohub,2013-02-16 03:59:00,
2013-02-15 23:05:00,34.5,27.1,30.02,NNW,328,0.0,0.0,74,0.00,,,0.04,meteohub,2013-02-16 04:05:00,
2013-02-15 23:12:00,34.5,27.1,30.01,NNW,327,0.0,0.0,74,0.00,,,0.04,meteohub,2013-02-16 04:12:00,
2013-02-15 23:17:00,34.7,27.0,30.01,NNW,331,0.0,0.0,73,0.00,,,0.04,meteohub,2013-02-16 04:17:00,
2013-02-15 23:22:00,34.9,27.5,30.01,NNW,331,0.0,0.0,74,0.00,,,0.04,meteohub,2013-02-16 04:22:00,
2013-02-15 23:27:00,34.9,27.5,30.01,NNW,331,0.0,0.0,74,0.00,,,0.04,meteohub,2013-02-16 04:27:00,
2013-02-15 23:33:00,34.9,27.5,30.01,NNW,331,0.0,0.0,74,0.00,,,0.04,meteohub,2013-02-16 04:33:00,
2013-02-15 23:39:00,34.7,27.3,30.00,NNW,331,0.0,0.0,74,0.00,,,0.04,meteohub,2013-02-16 04:39:00,
2013-02-15 23:45:00,34.9,27.5,30.00,NNW,331,0.0,0.0,74,0.00,,,0.04,meteohub,2013-02-16 04:45:00,
2013-02-15 23:51:00,34.9,27.5,30.00,NNW,331,0.0,0.0,74,0.00,,,0.04,meteohub,2013-02-16 04:51:00,
2013-02-15 23:57:00,34.9,27.1,30.00,NNW,331,0.0,0.0,73,0.00,,,0.04,meteohub,2013-02-16 04:57:00,